Time;durP1;ratioP1;P1;durP2;ratioP2;P2;SDS_P1;SDS_P2;PMS_P1;PMS_P2;Temp;Humidity;BMP_temperature;BMP_pressure;BME280_temperature;BME280_humidity;BME280_pressure;Samples;Min_cycle;Max_cycle;Signal;HPM_P1;HPM_P2
2023/07/07 00:00:56;;;;;;;17.98;16.02;;;;;;;16.35;100.00;96594.91;5030881;28;20032;-83
2023/07/07 00:03:22;;;;;;;22.90;16.30;;;;;;;16.22;100.00;96588.53;5045669;28;20504;-82
2023/07/07 00:05:48;;;;;;;17.95;15.00;;;;;;;16.21;100.00;96585.09;5047347;28;20550;-83
2023/07/07 00:08:13;;;;;;;16.70;15.13;;;;;;;16.27;100.00;96591.50;5030515;28;20036;-83
2023/07/07 00:10:42;;;;;;;19.02;16.83;;;;;;;16.38;100.00;96595.53;5030202;28;20029;-83
2023/07/07 00:13:13;;;;;;;30.98;18.58;;;;;;;16.06;100.00;96578.91;5047666;28;20024;-83
2023/07/07 00:15:44;;;;;;;20.20;15.15;;;;;;;16.26;100.00;96597.69;5029534;28;20449;-83
2023/07/07 00:18:14;;;;;;;17.48;15.05;;;;;;;16.27;100.00;96594.09;5047663;28;20029;-83
2023/07/07 00:20:40;;;;;;;23.30;14.45;;;;;;;16.20;100.00;96590.50;5046335;28;20411;-84
2023/07/07 00:23:05;;;;;;;16.00;14.27;;;;;;;16.15;100.00;96587.59;5047078;28;20086;-84
2023/07/07 00:25:31;;;;;;;19.55;14.50;;;;;;;16.14;100.00;96592.00;5046983;28;20120;-82
2023/07/07 00:27:57;;;;;;;17.20;15.48;;;;;;;16.17;100.00;96588.22;5029446;28;20056;-83
2023/07/07 00:30:22;;;;;;;18.63;15.95;;;;;;;16.20;100.00;96599.16;5047231;28;20588;-83
2023/07/07 00:32:48;;;;;;;17.50;15.75;;;;;;;16.30;100.00;96599.81;5029152;28;20079;-83
2023/07/07 00:35:13;;;;;;;17.88;15.77;;;;;;;16.23;100.00;96591.00;5030596;28;20475;-83
2023/07/07 00:37:39;;;;;;;16.60;14.77;;;;;;;16.20;100.00;96601.78;5029046;28;20032;-82
2023/07/07 00:40:05;;;;;;;16.17;13.80;;;;;;;16.14;100.00;96592.00;5048294;28;20063;-83
2023/07/07 00:42:31;;;;;;;19.98;14.27;;;;;;;16.01;100.00;96581.22;5046030;28;20029;-84
2023/07/07 00:45:13;;;;;;;15.63;14.02;;;;;;;16.04;100.00;96590.50;5046564;28;20052;-84
2023/07/07 00:47:50;;;;;;;19.75;14.98;;;;;;;16.12;100.00;96588.69;5030457;28;20041;-83
2023/07/07 00:50:17;;;;;;;16.80;15.05;;;;;;;16.14;100.00;96593.78;5028961;28;20477;-83
2023/07/07 00:52:44;;;;;;;17.45;14.82;;;;;;;16.10;100.00;96589.84;5046925;28;20052;-84
2023/07/07 00:55:13;;;;;;;19.02;14.90;;;;;;;16.06;100.00;96573.69;5028837;28;20116;-83
2023/07/07 00:57:38;;;;;;;16.48;14.27;;;;;;;16.02;100.00;96572.38;5046878;28;20025;-83
2023/07/07 01:00:06;;;;;;;15.40;14.02;;;;;;;16.00;100.00;96587.41;5045896;28;20116;-83
2023/07/07 01:02:31;;;;;;;15.60;14.02;;;;;;;15.95;100.00;96581.03;5046215;28;20116;-83
2023/07/07 01:05:00;;;;;;;19.95;14.50;;;;;;;15.90;100.00;96578.91;5046387;28;20115;-83
2023/07/07 01:07:38;;;;;;;17.65;13.52;;;;;;;15.86;100.00;96588.03;5028930;28;20122;-83
2023/07/07 01:10:04;;;;;;;18.98;17.05;;;;;;;15.91;100.00;96585.78;5046576;28;20048;-83
2023/07/07 01:12:30;;;;;;;17.48;15.45;;;;;;;15.94;100.00;96593.28;5045508;28;20029;-84
2023/07/07 01:14:55;;;;;;;16.15;14.45;;;;;;;15.96;100.00;96591.31;5046411;28;20051;-83
2023/07/07 01:17:28;;;;;;;18.00;15.88;;;;;;;16.02;100.00;96601.13;5029142;28;20489;-82
2023/07/07 01:20:30;;;;;;;17.65;14.93;;;;;;;15.99;100.00;96600.66;5047118;28;20028;-83
2023/07/07 01:23:21;;;;;;;19.00;14.93;;;;;;;15.84;100.00;96603.06;5046752;28;20029;-83
2023/07/07 01:25:49;;;;;;;20.15;17.42;;;;;;;15.83;100.00;96604.88;5046854;28;20059;-83
2023/07/07 01:28:53;;;;;;;19.33;14.03;;;;;;;15.85;100.00;96607.34;5047154;28;20448;-83
2023/07/07 01:31:32;;;;;;;19.40;15.40;;;;;;;15.85;100.00;96602.09;5046154;28;20033;-82
2023/07/07 01:33:59;;;;;;;15.90;14.45;;;;;;;15.77;100.00;96599.47;5045396;28;20021;-82
2023/07/07 01:36:24;;;;;;;24.27;15.55;;;;;;;15.70;100.00;96606.34;5047753;28;20087;-83
2023/07/07 01:38:50;;;;;;;22.25;15.55;;;;;;;15.62;100.00;96593.25;5028800;28;20048;-83
2023/07/07 01:41:26;;;;;;;16.23;14.23;;;;;;;15.70;100.00;96593.28;5045910;28;20448;-83
2023/07/07 01:44:14;;;;;;;17.38;15.57;;;;;;;15.78;100.00;96608.94;5046199;28;20037;-84
2023/07/07 01:47:14;;;;;;;16.05;14.40;;;;;;;15.82;100.00;96607.66;5045140;28;20032;-83
2023/07/07 01:50:02;;;;;;;17.17;15.18;;;;;;;15.68;100.00;96597.84;5045815;28;20045;-84
2023/07/07 01:52:40;;;;;;;16.60;14.77;;;;;;;15.64;100.00;96592.09;5046095;28;20029;-83
2023/07/07 01:55:15;;;;;;;21.23;15.82;;;;;;;15.63;100.00;96600.13;5045086;28;20111;-83
2023/07/07 01:57:42;;;;;;;16.50;14.65;;;;;;;15.63;100.00;96600.94;5046327;28;20047;-83
2023/07/07 02:00:10;;;;;;;17.70;15.40;;;;;;;15.66;100.00;96600.63;5045125;28;20414;-83
2023/07/07 02:02:36;;;;;;;17.65;15.32;;;;;;;15.73;100.00;96604.19;5046186;28;20021;-83
2023/07/07 02:05:01;;;;;;;16.83;15.32;;;;;;;15.64;100.00;96591.28;5045605;28;20025;-83
2023/07/07 02:07:27;;;;;;;21.63;14.80;;;;;;;15.62;100.00;96607.13;5028429;28;20422;-83
2023/07/07 02:09:52;;;;;;;19.65;15.63;;;;;;;15.58;100.00;96603.22;5047376;28;20029;-83
2023/07/07 02:12:18;;;;;;;17.30;15.60;;;;;;;15.56;100.00;96597.34;5044615;28;20025;-83
2023/07/07 02:14:43;;;;;;;16.30;14.70;;;;;;;15.54;100.00;96604.50;5047724;28;20025;-83
2023/07/07 02:17:08;;;;;;;18.17;16.33;;;;;;;15.50;100.00;96602.38;5045109;28;20104;-84
2023/07/07 02:19:34;;;;;;;21.30;15.48;;;;;;;15.45;100.00;96602.81;5029150;28;20025;-83
2023/07/07 02:21:59;;;;;;;18.65;16.63;;;;;;;15.44;100.00;96609.03;5028452;28;20024;-83
2023/07/07 02:24:25;;;;;;;18.67;15.35;;;;;;;15.57;100.00;96619.06;5028765;28;20543;-83
2023/07/07 02:26:50;;;;;;;18.42;16.52;;;;;;;15.55;100.00;96615.75;5048440;28;20033;-83
2023/07/07 02:29:16;;;;;;;25.38;17.83;;;;;;;15.46;100.00;96612.28;5048504;28;20569;-83
2023/07/07 02:31:42;;;;;;;27.05;18.80;;;;;;;15.51;100.00;96607.44;5050558;28;20029;-83
2023/07/07 02:34:07;;;;;;;22.83;18.17;;;;;;;15.44;100.00;96600.38;5048368;28;20521;-83
2023/07/07 02:36:36;;;;;;;18.67;16.05;;;;;;;15.53;100.00;96612.50;5049085;28;20029;-83
2023/07/07 02:39:02;;;;;;;27.17;15.32;;;;;;;15.44;100.00;96608.22;5048368;28;20103;-82
2023/07/07 02:41:27;;;;;;;19.00;16.85;;;;;;;15.48;100.00;96607.75;5048925;28;20041;-82
2023/07/07 02:43:53;;;;;;;18.95;15.77;;;;;;;15.51;100.00;96617.88;5048757;28;20025;-83
2023/07/07 02:46:18;;;;;;;16.42;14.80;;;;;;;15.51;100.00;96606.63;5048751;28;20100;-83
2023/07/07 02:48:44;;;;;;;20.60;14.95;;;;;;;15.46;100.00;96608.88;5048931;28;20024;-83
2023/07/07 02:51:09;;;;;;;22.27;15.55;;;;;;;15.38;100.00;96606.25;5048112;28;20027;-84
2023/07/07 02:53:36;;;;;;;19.85;16.42;;;;;;;15.31;100.00;96603.44;5032358;28;20033;-84
2023/07/07 02:56:02;;;;;;;25.50;15.15;;;;;;;15.31;100.00;96611.28;5031169;28;20060;-83
2023/07/07 02:58:27;;;;;;;20.38;16.05;;;;;;;15.31;100.00;96619.13;5048714;28;20033;-85
2023/07/07 03:00:53;;;;;;;17.88;15.63;;;;;;;15.31;100.00;96609.47;5048194;28;20120;-84
2023/07/07 03:03:20;;;;;;;22.20;16.58;;;;;;;15.34;100.00;96620.59;5048827;28;20521;-84
2023/07/07 03:05:46;;;;;;;18.60;16.65;;;;;;;15.29;100.00;96614.03;5031765;28;20033;-83
2023/07/07 03:08:12;;;;;;;18.23;15.48;;;;;;;15.40;100.00;96622.56;5047913;28;20126;-85
2023/07/07 03:10:39;;;;;;;18.17;15.05;;;;;;;15.44;100.00;96624.72;5048858;28;20071;-83
2023/07/07 03:13:04;;;;;;;19.00;16.60;;;;;;;15.45;100.00;96631.53;5030888;28;20116;-84
2023/07/07 03:15:38;;;;;;;17.95;16.05;;;;;;;15.53;100.00;96636.00;5032102;28;20105;-84
2023/07/07 03:18:06;;;;;;;20.33;16.58;;;;;;;15.44;100.00;96627.31;5031916;28;20029;-84
2023/07/07 03:20:31;;;;;;;19.95;16.55;;;;;;;15.55;100.00;96636.66;5031756;28;20482;-84
2023/07/07 03:22:56;;;;;;;16.52;14.80;;;;;;;15.65;100.00;96648.59;5048078;28;20032;-83
2023/07/07 03:25:26;;;;;;;20.00;14.65;;;;;;;15.67;100.00;96637.97;5047705;28;20413;-82
2023/07/07 03:27:51;;;;;;;15.00;13.27;;;;;;;15.74;100.00;96636.38;5048115;28;20029;-83
2023/07/07 03:30:17;;;;;;;16.13;14.63;;;;;;;15.88;100.00;96640.16;5030620;28;20505;-83
2023/07/07 03:32:42;;;;;;;17.38;14.73;;;;;;;15.91;100.00;96632.81;5031540;28;20044;-83
2023/07/07 03:35:08;;;;;;;15.20;13.77;;;;;;;16.23;100.00;96622.38;5030574;28;20066;-83
2023/07/07 03:37:33;;;;;;;15.18;12.85;;;;;;;16.27;100.00;96592.31;5031637;28;20048;-82
2023/07/07 03:39:59;;;;;;;17.42;15.43;;;;;;;16.32;100.00;96556.00;5030421;28;20551;-84
2023/07/07 03:42:24;;;;;;;36.88;29.60;;;;;;;16.44;100.00;96529.50;5047929;28;20029;-83
2023/07/07 03:44:50;;;;;;;24.17;21.63;;;;;;;16.37;100.00;96502.41;5047919;28;20417;-83
2023/07/07 03:47:15;;;;;;;17.77;15.98;;;;;;;16.46;100.00;96477.84;5048457;28;20075;-83
2023/07/07 03:49:41;;;;;;;24.40;17.33;;;;;;;16.40;100.00;96442.72;5031270;28;20851;-83
2023/07/07 03:52:06;;;;;;;24.40;20.67;;;;;;;16.46;100.00;96430.75;5048113;28;20029;-83
2023/07/07 03:54:32;;;;;;;19.45;16.90;;;;;;;16.56;100.00;96431.41;5048011;28;20029;-83
2023/07/07 03:56:57;;;;;;;17.58;15.70;;;;;;;16.59;100.00;96425.81;5046608;28;20036;-82
2023/07/07 03:59:23;;;;;;;18.88;14.38;;;;;;;16.62;100.00;96422.88;5031011;28;20155;-83
2023/07/07 04:01:49;;;;;;;19.58;16.50;;;;;;;16.72;100.00;96429.53;5047181;28;20028;-84
2023/07/07 04:04:14;;;;;;;21.42;17.38;;;;;;;16.65;100.00;96431.19;5046916;28;20033;-84
2023/07/07 04:06:40;;;;;;;18.48;15.07;;;;;;;17.04;100.00;96454.69;5047675;28;20033;-83
2023/07/07 04:09:05;;;;;;;16.45;14.38;;;;;;;17.07;100.00;96412.44;5047604;28;20048;-83
2023/07/07 04:11:31;;;;;;;15.88;13.60;;;;;;;17.30;100.00;96402.78;5047775;28;20042;-83
2023/07/07 04:13:56;;;;;;;12.15;11.10;;;;;;;17.87;100.00;96279.06;5046075;28;20021;-82
2023/07/07 04:16:24;;;;;;;11.88;10.77;;;;;;;18.00;100.00;96145.53;5047616;28;20049;-83
2023/07/07 04:18:52;;;;;;;11.85;10.27;;;;;;;19.40;100.00;95803.75;5046254;28;20041;-81
2023/07/07 04:21:20;;;;;;;11.35;9.95;;;;;;;19.45;100.00;95422.94;5030737;28;20032;-82
2023/07/07 04:23:46;;;;;;;10.77;9.83;;;;;;;19.98;100.00;95330.41;5047290;28;20021;-82
2023/07/07 04:26:13;;;;;;;11.57;9.05;;;;;;;20.34;100.00;95167.28;5046093;28;20271;-82
2023/07/07 04:28:39;;;;;;;9.45;8.48;;;;;;;20.85;100.00;95157.94;5048523;28;20091;-82
2023/07/07 04:31:07;;;;;;;10.90;9.80;;;;;;;21.85;100.00;95043.25;5029160;28;20025;-83
2023/07/07 04:33:33;;;;;;;10.68;9.60;;;;;;;22.73;100.00;94975.72;5047097;28;20059;-83
2023/07/07 04:36:01;;;;;;;9.48;8.52;;;;;;;23.15;100.00;94942.34;5029259;28;20033;-83
2023/07/07 04:38:32;;;;;;;;;;;;;;;23.94;100.00;94924.84;5047584;28;20033;-83
2023/07/07 04:41:09;;;;;;;12.95;10.20;;;;;;;24.04;100.00;94905.59;5030917;28;19995;-83
2023/07/07 04:43:37;;;;;;;11.30;10.20;;;;;;;24.49;100.00;94884.69;5046225;28;20029;-86
2023/07/07 04:46:03;;;;;;;13.13;12.07;;;;;;;23.96;100.00;94898.91;5030395;28;20499;-84
2023/07/07 04:48:29;;;;;;;13.82;12.30;;;;;;;24.66;100.00;94903.00;5028829;28;20109;-85
2023/07/07 04:51:08;;;;;;;15.40;14.20;;;;;;;24.67;100.00;94904.63;5030599;28;20530;-85
2023/07/07 04:53:35;;;;;;;15.35;14.25;;;;;;;24.36;100.00;94885.16;5029820;28;20025;-86
2023/07/07 04:56:06;;;;;;;14.43;13.20;;;;;;;23.97;100.00;94912.94;5029746;28;20553;-85
2023/07/07 04:58:31;;;;;;;16.40;14.85;;;;;;;23.35;100.00;94925.91;5046900;28;20082;-85
2023/07/07 05:01:21;;;;;;;17.48;16.08;;;;;;;23.27;100.00;94935.09;5029281;28;20477;-85
2023/07/07 05:03:50;;;;;;;15.93;14.73;;;;;;;24.41;100.00;94916.94;5030417;28;20116;-87
2023/07/07 05:06:16;;;;;;;15.85;14.63;;;;;;;25.06;100.00;94879.31;5045521;28;20024;-86
2023/07/07 05:08:42;;;;;;;14.43;13.32;;;;;;;23.50;100.00;94915.50;5029979;28;20538;-86
2023/07/07 05:11:13;;;;;;;17.10;15.57;;;;;;;23.68;100.00;94914.31;5029573;28;20025;-85
2023/07/07 05:13:39;;;;;;;16.02;14.73;;;;;;;23.19;100.00;94932.88;5045900;28;20487;-86
2023/07/07 05:18:34;;;;;;;16.67;15.05;;;;;;;22.16;100.00;95025.28;5025137;28;20068;-87
2023/07/07 05:21:00;;;;;;;18.42;16.73;;;;;;;23.33;100.00;94965.81;5027175;28;20025;-86
2023/07/07 05:23:25;;;;;;;17.00;15.65;;;;;;;23.41;100.00;94952.16;5027330;28;20087;-86
2023/07/07 05:25:51;;;;;;;19.77;17.52;;;;;;;22.98;100.00;94958.31;5029001;28;20037;-86
2023/07/07 05:28:17;;;;;;;15.85;14.35;;;;;;;25.35;100.00;94908.81;5028167;28;20030;-85
2023/07/07 05:30:43;;;;;;;13.50;12.45;;;;;;;27.94;100.00;94874.91;5027912;28;20076;-86
2023/07/07 05:33:09;;;;;;;14.20;12.90;;;;;;;28.64;100.00;94858.16;5026476;28;20025;-86
2023/07/07 05:35:34;;;;;;;13.57;12.57;;;;;;;29.19;100.00;94853.97;5029338;28;20448;-87
2023/07/07 05:38:00;;;;;;;11.90;11.00;;;;;;;29.55;100.00;94856.94;5026876;28;20021;-87
2023/07/07 05:40:27;;;;;;;12.23;11.05;;;;;;;30.46;98.65;94862.59;5422500;22;20049;-87
2023/07/07 05:42:53;;;;;;;13.57;12.23;;;;;;;29.13;100.00;94860.47;5026447;28;20029;-88
2023/07/07 05:45:18;;;;;;;15.82;12.63;;;;;;;31.02;91.00;94856.94;5027990;28;20029;-87
2023/07/07 05:47:44;;;;;;;14.23;13.00;;;;;;;32.06;81.59;94867.34;5028004;28;20025;-86
2023/07/07 05:50:09;;;;;;;12.55;11.60;;;;;;;30.07;94.45;94869.19;5029011;28;20056;-87
2023/07/07 05:52:35;;;;;;;14.77;13.48;;;;;;;29.15;100.00;94871.69;5026657;28;20564;-86
2023/07/07 05:55:03;;;;;;;13.68;12.43;;;;;;;30.47;93.28;94864.97;5027735;28;20046;-88
2023/07/07 05:57:28;;;;;;;15.30;13.23;;;;;;;31.24;90.77;94870.34;5028558;28;20053;-89
2023/07/07 05:59:54;;;;;;;13.93;12.98;;;;;;;31.41;88.45;94865.13;5027581;28;20490;-90
2023/07/07 06:02:19;;;;;;;14.65;12.70;;;;;;;32.69;80.05;94862.41;5032810;28;20104;-82
2023/07/07 06:04:45;;;;;;;14.77;13.60;;;;;;;28.46;100.00;94866.94;5031881;28;20083;-89
2023/07/07 06:07:10;;;;;;;18.92;14.10;;;;;;;32.69;79.51;94862.41;5033029;28;20049;-89
2023/07/07 06:09:36;;;;;;;16.50;15.18;;;;;;;31.20;89.39;94859.44;5031686;28;20037;-78
2023/07/07 06:12:02;;;;;;;16.08;14.63;;;;;;;32.01;84.37;94864.78;5030993;28;20113;-86
2023/07/07 06:14:28;;;;;;;16.13;14.70;;;;;;;32.32;81.70;94873.63;5031464;28;20108;-87
2023/07/07 06:16:53;;;;;;;16.45;14.73;;;;;;;33.83;75.20;94863.81;5032466;28;20108;-84
2023/07/07 06:19:19;;;;;;;15.95;14.70;;;;;;;32.16;83.55;94872.44;5031913;28;20057;-83
2023/07/07 06:21:44;;;;;;;16.55;15.18;;;;;;;30.43;95.14;94872.00;5031842;28;20049;-78
2023/07/07 06:24:10;;;;;;;16.77;15.20;;;;;;;30.07;95.65;94866.50;5032104;28;20079;-84
2023/07/07 06:26:35;;;;;;;19.20;17.35;;;;;;;29.37;100.00;94876.44;5029791;28;20057;-86
2023/07/07 06:29:01;;;;;;;19.05;17.35;;;;;;;29.34;100.00;94863.69;5031849;28;20414;-84
2023/07/07 06:31:27;;;;;;;18.33;16.80;;;;;;;29.01;100.00;94867.31;5029938;28;20018;-87
2023/07/07 06:33:52;;;;;;;18.77;17.10;;;;;;;28.58;100.00;94861.97;5031979;28;20021;-81
2023/07/07 06:36:18;;;;;;;18.40;16.80;;;;;;;27.89;100.00;94870.44;5031734;28;20032;-79
2023/07/07 06:38:43;;;;;;;17.95;16.38;;;;;;;28.65;100.00;94870.47;5030567;28;20024;-85
2023/07/07 06:41:21;;;;;;;19.27;16.92;;;;;;;28.10;100.00;94876.38;5031070;28;20571;-84
2023/07/07 06:43:46;;;;;;;18.02;16.42;;;;;;;28.24;100.00;94871.97;5029593;28;20044;-79
2023/07/07 06:46:13;;;;;;;18.70;16.98;;;;;;;29.55;100.00;94864.94;5031817;28;20029;-84
2023/07/07 06:48:39;;;;;;;16.48;15.18;;;;;;;30.15;100.00;94867.72;5030749;28;20161;-83
2023/07/07 06:51:04;;;;;;;17.85;16.20;;;;;;;33.14;88.84;94868.38;5031575;28;20120;-82
2023/07/07 06:53:30;;;;;;;18.35;16.63;;;;;;;30.45;100.00;94869.81;5029380;28;20025;-82
2023/07/07 06:55:55;;;;;;;19.15;17.50;;;;;;;28.29;100.00;94871.91;5030376;28;20029;-86
2023/07/07 06:58:22;;;;;;;20.80;19.02;;;;;;;27.64;100.00;94876.78;5029696;28;20036;-82
2023/07/07 07:00:47;;;;;;;19.60;17.90;;;;;;;27.30;100.00;94875.13;5013282;28;20418;-81
2023/07/07 07:03:13;;;;;;;20.08;18.35;;;;;;;27.53;100.00;94877.13;5031193;28;20489;-83
2023/07/07 07:05:39;;;;;;;21.40;19.60;;;;;;;27.22;100.00;94884.50;5029161;28;20025;-82
2023/07/07 07:08:04;;;;;;;22.70;20.55;;;;;;;27.51;100.00;94885.41;5031272;28;20024;-82
2023/07/07 07:10:30;;;;;;;22.85;20.77;;;;;;;26.74;100.00;94891.38;5030254;28;20022;-82
2023/07/07 07:12:55;;;;;;;21.88;19.77;;;;;;;26.24;100.00;94889.69;5031166;28;20036;-81
2023/07/07 07:15:21;;;;;;;23.08;20.83;;;;;;;26.05;100.00;94888.63;5029004;28;20028;-80
2023/07/07 07:17:46;;;;;;;22.95;20.65;;;;;;;27.33;100.00;94879.88;5031096;28;20079;-85
2023/07/07 07:20:13;;;;;;;24.27;20.92;;;;;;;27.61;100.00;94890.63;5012850;28;20025;-85
2023/07/07 07:22:38;;;;;;;21.70;19.50;;;;;;;26.88;100.00;94888.94;5029149;28;20129;-82
2023/07/07 07:25:04;;;;;;;23.75;21.48;;;;;;;26.60;100.00;94895.69;5030034;28;20108;-82
2023/07/07 07:27:30;;;;;;;24.50;22.13;;;;;;;26.51;100.00;94889.34;5030206;28;20029;-83
2023/07/07 07:29:55;;;;;;;23.25;21.02;;;;;;;27.25;100.00;94891.94;5029678;28;20116;-85
2023/07/07 07:32:21;;;;;;;22.45;20.33;;;;;;;28.45;100.00;94884.00;5029862;28;20083;-87
2023/07/07 07:34:46;;;;;;;21.55;19.45;;;;;;;28.29;100.00;94890.56;5031048;28;20025;-86
2023/07/07 07:37:13;;;;;;;21.70;19.42;;;;;;;27.23;100.00;94899.38;5012193;28;20410;-88
2023/07/07 07:39:39;;;;;;;23.27;21.08;;;;;;;26.45;100.00;94907.19;5029067;28;20041;-83
2023/07/07 07:42:05;;;;;;;25.45;22.77;;;;;;;26.44;100.00;94897.59;5029406;28;20041;-82
2023/07/07 07:44:30;;;;;;;20.83;18.80;;;;;;;26.82;100.00;94901.47;5027039;28;20033;-80
2023/07/07 07:46:57;;;;;;;22.10;19.92;;;;;;;28.14;100.00;94907.50;5028019;28;20021;-83
2023/07/07 07:49:27;;;;;;;21.35;18.90;;;;;;;28.02;100.00;94908.94;5027227;28;20108;-80
2023/07/07 07:51:52;;;;;;;21.42;19.38;;;;;;;27.86;100.00;94910.94;5011043;28;20032;-82
2023/07/07 07:54:20;;;;;;;19.13;17.55;;;;;;;26.82;100.00;94900.66;5028637;28;20021;-90
2023/07/07 07:56:46;;;;;;;20.88;18.92;;;;;;;26.90;100.00;94908.91;5027237;28;20065;-85
2023/07/07 07:59:12;;;;;;;20.92;18.90;;;;;;;26.61;100.00;94910.56;5027746;28;20061;-82
2023/07/07 08:01:38;;;;;;;20.17;18.38;;;;;;;26.40;100.00;94915.16;5028049;28;20247;-85
2023/07/07 08:04:04;;;;;;;19.67;17.95;;;;;;;26.48;100.00;94913.81;5027726;28;20021;-84
2023/07/07 08:06:30;;;;;;;20.55;18.45;;;;;;;26.49;100.00;94918.84;5027201;28;20034;-87
2023/07/07 08:08:55;;;;;;;19.10;17.38;;;;;;;26.29;100.00;94920.78;5027172;28;20482;-81
2023/07/07 08:11:47;;;;;;;20.83;18.88;;;;;;;26.21;100.00;94906.16;5026874;28;20025;-81
2023/07/07 08:14:15;;;;;;;18.35;16.48;;;;;;;26.34;100.00;94916.22;5028086;28;20049;-85
2023/07/07 08:16:41;;;;;;;19.83;17.95;;;;;;;27.14;100.00;94917.00;5028625;28;20040;-85
2023/07/07 08:19:06;;;;;;;18.95;16.98;;;;;;;27.29;100.00;94916.94;5027870;28;20037;-86
2023/07/07 08:21:32;;;;;;;19.15;17.25;;;;;;;27.07;100.00;94911.97;5027092;28;20022;-83
2023/07/07 08:23:57;;;;;;;19.80;17.83;;;;;;;27.04;100.00;94917.03;5026116;28;20533;-88
2023/07/07 08:26:23;;;;;;;17.67;16.17;;;;;;;27.30;100.00;94909.72;5026761;28;20514;-82
2023/07/07 08:28:49;;;;;;;17.13;15.52;;;;;;;27.63;100.00;94912.47;5028147;28;20025;-84
2023/07/07 08:31:14;;;;;;;18.05;16.33;;;;;;;27.69;100.00;94903.34;5028097;28;20395;-81
2023/07/07 08:33:43;;;;;;;16.45;14.73;;;;;;;27.80;100.00;94903.28;5028133;28;20021;-88
2023/07/07 08:36:09;;;;;;;14.35;13.25;;;;;;;28.59;100.00;94903.56;5026338;28;20426;-86
2023/07/07 08:38:35;;;;;;;14.75;13.40;;;;;;;29.08;100.00;94900.59;5026807;28;20022;-82
2023/07/07 08:41:00;;;;;;;14.00;12.68;;;;;;;28.74;100.00;94890.06;5027364;28;20125;-80
2023/07/07 08:43:29;;;;;;;13.93;12.68;;;;;;;28.93;100.00;94886.66;5027999;28;20028;-86
2023/07/07 08:46:17;;;;;;;13.65;12.32;;;;;;;28.10;100.00;94895.81;5027925;28;20021;-85
2023/07/07 08:48:52;;;;;;;12.65;11.55;;;;;;;28.70;100.00;94894.41;5026042;28;20033;-82
2023/07/07 08:51:21;;;;;;;14.27;12.35;;;;;;;29.12;100.00;94900.81;5028104;28;20108;-80
2023/07/07 08:54:03;;;;;;;11.82;10.80;;;;;;;28.83;100.00;94881.44;5027156;28;20412;-82
2023/07/07 08:56:45;;;;;;;12.25;10.77;;;;;;;29.09;100.00;94885.38;5026663;28;20098;-89
2023/07/07 08:59:16;;;;;;;12.45;11.32;;;;;;;28.90;100.00;94884.56;5027679;28;20029;-87
2023/07/07 09:01:44;;;;;;;12.98;11.98;;;;;;;28.65;100.00;94881.13;5027107;28;20040;-80
2023/07/07 09:04:47;;;;;;;12.43;11.00;;;;;;;27.87;100.00;94887.78;5026752;28;20060;-80
2023/07/07 09:07:40;;;;;;;12.20;11.30;;;;;;;27.31;100.00;94882.03;5027369;28;20061;-86
2023/07/07 09:10:18;;;;;;;11.90;10.65;;;;;;;27.96;100.00;94881.56;5026389;28;20029;-81
2023/07/07 09:12:57;;;;;;;11.00;9.93;;;;;;;28.37;100.00;94875.84;5027660;28;20360;-82
2023/07/07 09:15:32;;;;;;;8.82;8.13;;;;;;;28.41;100.00;94869.66;5009234;28;20110;-86
2023/07/07 09:18:24;;;;;;;8.88;8.18;;;;;;;28.70;100.00;94870.41;5026229;28;20091;-79
2023/07/07 09:20:57;;;;;;;8.93;8.23;;;;;;;28.70;97.90;94862.41;5026903;28;20041;-81
2023/07/07 09:23:27;;;;;;;8.40;7.70;;;;;;;28.89;100.00;94872.31;5025780;28;20057;-80
2023/07/07 09:25:58;;;;;;;8.90;8.10;;;;;;;28.98;97.40;94878.56;5026217;28;20358;-80
2023/07/07 09:28:25;;;;;;;12.05;8.35;;;;;;;29.01;99.08;94881.47;5025648;28;20033;-77
2023/07/07 09:30:58;;;;;;;8.07;7.20;;;;;;;28.96;95.10;94880.75;5027417;28;20055;-89
2023/07/07 09:33:24;;;;;;;7.68;7.10;;;;;;;28.95;90.39;94884.50;5025992;28;20025;-90
2023/07/07 09:36:21;;;;;;;7.53;6.78;;;;;;;29.15;94.81;94881.56;5028481;28;20040;-85
2023/07/07 09:39:22;;;;;;;7.43;6.90;;;;;;;29.17;93.94;94869.50;5030407;28;20033;-83
2023/07/07 09:42:07;;;;;;;8.73;7.90;;;;;;;28.99;87.98;94877.50;5011795;28;20358;-82
2023/07/07 09:45:12;;;;;;;8.38;7.68;;;;;;;29.08;87.84;94878.44;5031155;28;20029;-86
2023/07/07 09:48:05;;;;;;;8.68;6.50;;;;;;;28.99;87.72;94866.84;5027344;28;20087;-84
2023/07/07 09:50:34;;;;;;;8.73;7.97;;;;;;;29.13;98.27;94873.81;5013100;28;20033;-80
2023/07/07 09:53:14;;;;;;;;;;;;;;;29.30;95.99;94870.69;5031374;28;20018;-88
2023/07/07 09:55:41;;;;;;;8.82;8.05;;;;;;;29.46;97.82;94865.91;5031525;28;20031;-82
2023/07/07 09:58:28;;;;;;;9.00;8.07;;;;;;;29.64;93.41;94870.41;5029068;28;20055;-86
2023/07/07 10:00:57;;;;;;;8.23;7.63;;;;;;;29.62;92.29;94869.91;5029915;28;20495;-83
2023/07/07 10:03:32;;;;;;;9.20;8.43;;;;;;;29.49;95.69;94868.78;5012792;28;20127;-85
2023/07/07 10:06:00;;;;;;;9.00;7.97;;;;;;;29.33;96.66;94867.44;5029272;28;20025;-80
2023/07/07 10:08:26;;;;;;;9.48;8.60;;;;;;;29.29;97.09;94858.41;5029418;28;20049;-85
2023/07/07 10:10:59;;;;;;;10.18;9.48;;;;;;;29.02;95.55;94863.59;5028979;28;20028;-85
2023/07/07 10:13:25;;;;;;;9.70;8.88;;;;;;;29.04;98.46;94867.53;5031149;28;20025;-80
2023/07/07 10:16:06;;;;;;;10.23;9.48;;;;;;;29.15;97.55;94853.00;5030080;28;20028;-82
2023/07/07 10:18:32;;;;;;;10.68;8.98;;;;;;;28.90;100.00;94860.56;5029730;28;20495;-83
2023/07/07 10:21:01;;;;;;;9.77;8.90;;;;;;;28.58;94.78;94866.50;5030221;28;20112;-82
2023/07/07 10:23:28;;;;;;;9.35;8.25;;;;;;;28.61;97.68;94866.72;5012541;28;20099;-82
2023/07/07 10:25:53;;;;;;;10.95;9.95;;;;;;;28.62;94.88;94856.88;5029214;28;20025;-82
2023/07/07 10:28:20;;;;;;;9.00;8.30;;;;;;;28.68;94.73;94863.75;5028907;28;20087;-83
2023/07/07 10:30:46;;;;;;;9.60;8.80;;;;;;;28.68;99.22;94856.56;5029368;28;20034;-83
2023/07/07 10:33:16;;;;;;;11.15;9.57;;;;;;;28.39;98.67;94861.13;5028386;28;20025;-81
2023/07/07 10:35:42;;;;;;;9.88;9.18;;;;;;;28.51;100.00;94858.84;5030537;28;20048;-79
2023/07/07 10:38:09;;;;;;;10.45;9.48;;;;;;;28.44;100.00;94853.09;5028625;28;20100;-82
2023/07/07 10:40:35;;;;;;;10.38;9.63;;;;;;;28.92;100.00;94853.06;5030055;28;20425;-82
2023/07/07 10:43:02;;;;;;;10.45;9.55;;;;;;;29.18;97.33;94854.28;5028428;28;20041;-84
2023/07/07 10:45:28;;;;;;;10.63;9.82;;;;;;;29.13;100.00;94835.66;5028554;28;20401;-79
2023/07/07 10:47:54;;;;;;;10.77;9.88;;;;;;;28.53;94.94;94839.91;5029688;28;20022;-80
2023/07/07 10:50:22;;;;;;;9.45;8.75;;;;;;;28.62;95.25;94839.00;5028056;28;20026;-79
2023/07/07 10:52:51;;;;;;;;;;;;;;;28.76;98.67;94839.94;5013181;28;20033;-85
2023/07/07 10:55:49;;;;;;;10.07;9.02;;;;;;;28.57;97.62;94831.06;5029418;28;20366;-81
2023/07/07 10:58:26;;;;;;;9.77;8.85;;;;;;;28.57;93.91;94823.06;5025015;28;20048;-77
2023/07/07 11:01:06;;;;;;;9.15;8.43;;;;;;;28.71;98.48;94813.31;5028914;28;20033;-83
2023/07/07 11:03:41;;;;;;;10.02;8.95;;;;;;;28.59;100.00;94807.56;5028327;28;20286;-79
2023/07/07 11:06:35;;;;;;;9.73;9.02;;;;;;;28.92;92.63;94811.16;5029683;28;20044;-86
2023/07/07 11:09:58;;;;;;;9.10;8.38;;;;;;;29.11;95.95;94806.59;5024604;28;20125;-85
2023/07/07 11:12:49;;;;;;;10.13;9.32;;;;;;;29.12;95.13;94807.41;5006814;28;20037;-84
2023/07/07 11:15:23;;;;;;;10.23;7.97;;;;;;;29.48;91.45;94810.31;4971151;28;20172;-88
2023/07/07 11:17:57;;;;;;;10.05;9.23;;;;;;;29.01;93.91;94809.44;5025751;28;20052;-81
2023/07/07 11:20:31;;;;;;;11.40;9.77;;;;;;;28.48;100.00;94806.09;5029219;28;20108;-81
2023/07/07 11:23:00;;;;;;;10.57;9.38;;;;;;;28.56;100.00;94802.81;5029865;28;20036;-81
2023/07/07 11:25:34;;;;;;;10.60;9.52;;;;;;;28.92;92.75;94800.50;5029101;28;20033;-86
2023/07/07 11:28:09;;;;;;;10.63;9.82;;;;;;;29.37;97.30;94809.72;5029697;28;20502;-77